Glengary, West Virginia
Current Conditions -  °F | °C
As of 10:53 AM on Saturday 25 Oct 2014 (Local Time) from KMRB Reporting Station
Clear Clear  
Wind Chill: 63°   Ceiling: Unl
Heat Index: 63°   Visibility: 10mi
Dew Point: 39°   Wind: 12mph
Humidity: 41%   Direction: 240°WSW
Pressure: 29.94"   Gusts: NA
Location:  39.38°N, 78.16°W
Report Text: KMRB 251453Z 24010KT 10SM CLR 17/04 A2994 RMK AO2 SLP137 T01720039 58008
Loading
Personal Weather Stations






























Interactive Weather Map
Tropical Storm Tracking
New forecast layout! Learn more

10-Day Weather Forecast

Advertisements
Track Severe Weather on mobile